createdAt,value
2019-05-01T00:02:14.697Z,943.7
2019-05-01T00:05:20.981Z,943.8
2019-05-01T00:08:27.196Z,943.7
2019-05-01T00:11:33.373Z,943.8
2019-05-01T00:14:39.624Z,943.7
2019-05-01T00:17:45.786Z,943.6
2019-05-01T00:20:52.198Z,943.7
2019-05-01T00:23:58.421Z,943.4
2019-05-01T00:27:04.695Z,943.6
2019-05-01T00:30:10.823Z,943.5
2019-05-01T00:33:17.022Z,943.6
2019-05-01T00:36:23.215Z,943.5
2019-05-01T00:39:29.453Z,943.6
2019-05-01T00:42:35.580Z,943.4
2019-05-01T00:45:41.782Z,943.5
2019-05-01T00:48:47.908Z,943.5
2019-05-01T00:51:54.109Z,943.4
2019-05-01T00:55:00.272Z,943.4
2019-05-01T00:58:06.435Z,943.5
2019-05-01T01:01:12.572Z,943.5
2019-05-01T01:04:18.868Z,943.4
2019-05-01T01:07:24.996Z,943.4
2019-05-01T01:10:31.348Z,943.6
2019-05-01T01:13:37.569Z,943.5
2019-05-01T01:16:43.728Z,943.6
2019-05-01T01:19:49.854Z,943.6
2019-05-01T01:22:56.158Z,943.6
2019-05-01T01:26:02.425Z,943.6
2019-05-01T01:29:08.556Z,943.5
2019-05-01T01:32:14.755Z,943.5
2019-05-01T01:35:20.996Z,943.5
2019-05-01T01:38:27.186Z,943.4
2019-05-01T01:41:33.376Z,943.3
2019-05-01T01:44:39.719Z,943.4
2019-05-01T01:47:45.883Z,943.3
2019-05-01T01:50:52.006Z,943.2
2019-05-01T01:53:58.216Z,943.1
2019-05-01T01:57:04.585Z,943
2019-05-01T02:00:10.710Z,943
2019-05-01T02:03:16.915Z,942.9
2019-05-01T02:06:23.178Z,942.9
2019-05-01T02:09:29.446Z,942.9
2019-05-01T02:12:35.720Z,942.9
2019-05-01T02:15:42.093Z,942.9
2019-05-01T02:18:48.268Z,942.9
2019-05-01T02:21:54.511Z,943
2019-05-01T02:25:03.428Z,942.9
2019-05-01T02:28:09.602Z,943
2019-05-01T02:31:30.271Z,942.9
2019-05-01T02:34:36.371Z,943.1
2019-05-01T02:37:42.653Z,943
2019-05-01T02:40:48.839Z,942.9
2019-05-01T02:43:55.072Z,943
2019-05-01T02:47:01.232Z,942.9
2019-05-01T02:50:07.399Z,942.9
2019-05-01T02:53:13.765Z,943
2019-05-01T02:56:19.891Z,943
2019-05-01T02:59:26.097Z,943.1
2019-05-01T03:02:32.263Z,943.1
2019-05-01T03:05:38.394Z,943.2
2019-05-01T03:08:44.594Z,943.2
2019-05-01T03:11:50.728Z,943.1
2019-05-01T03:14:56.919Z,943.2
2019-05-01T03:18:03.245Z,943.2
2019-05-01T03:21:09.437Z,943.2
2019-05-01T03:24:15.714Z,943.2
2019-05-01T03:27:22.827Z,943.3
2019-05-01T03:30:29.072Z,943.3
2019-05-01T03:33:35.501Z,943.3
2019-05-01T03:36:41.680Z,943.3
2019-05-01T03:39:47.873Z,943.4
2019-05-01T03:42:56.861Z,943.4
2019-05-01T03:46:03.068Z,943.3
2019-05-01T03:49:09.339Z,943.3
2019-05-01T03:52:15.539Z,943.4
2019-05-01T03:55:21.767Z,943.3
2019-05-01T03:58:28.032Z,943.4
2019-05-01T04:01:34.448Z,943.4
2019-05-01T04:04:40.672Z,943.4
2019-05-01T04:07:47.052Z,943.3
2019-05-01T04:10:53.335Z,943.4
2019-05-01T04:13:59.574Z,943.4
2019-05-01T04:17:05.703Z,943.4
2019-05-01T04:20:11.943Z,943.4
2019-05-01T04:23:18.072Z,943.4
2019-05-01T04:26:24.341Z,943.3
2019-05-01T04:29:30.648Z,943.2
2019-05-01T04:32:54.017Z,943.2
2019-05-01T04:36:00.132Z,943.1
2019-05-01T04:39:06.339Z,943.2
2019-05-01T04:42:12.673Z,943.2
2019-05-01T04:45:18.924Z,943.2
2019-05-01T04:48:25.191Z,943.2
2019-05-01T04:51:31.361Z,943.2
2019-05-01T04:54:37.673Z,943.2
2019-05-01T04:57:43.799Z,943.3
2019-05-01T05:00:49.953Z,943.3
2019-05-01T05:03:56.332Z,943.2
2019-05-01T05:07:02.465Z,943.2
2019-05-01T05:10:08.646Z,943.2
2019-05-01T05:13:14.927Z,943.2
2019-05-01T05:16:21.058Z,943.1
2019-05-01T05:19:27.290Z,943.2
2019-05-01T05:22:33.506Z,943.2
2019-05-01T05:25:39.676Z,943.2
2019-05-01T05:28:45.943Z,943.2
2019-05-01T05:31:52.211Z,943.3
2019-05-01T05:34:58.478Z,943.3
2019-05-01T05:38:04.749Z,943.4
2019-05-01T05:41:10.875Z,943.3
2019-05-01T05:44:17.068Z,943.2
2019-05-01T09:46:37.598Z,943
2019-05-01T09:49:43.734Z,943
2019-05-01T09:53:01.563Z,943
2019-05-01T09:56:09.776Z,942.9
2019-05-01T09:59:20.292Z,943.1
2019-05-01T10:02:26.488Z,943
2019-05-01T10:05:32.980Z,942.9
2019-05-01T10:08:47.999Z,942.9
2019-05-01T10:11:54.307Z,942.9
2019-05-01T10:15:00.591Z,942.8
2019-05-01T10:18:06.810Z,942.9
2019-05-01T10:21:13.079Z,942.8
2019-05-01T10:24:19.404Z,942.9
2019-05-01T10:27:25.603Z,942.9
2019-05-01T10:30:41.670Z,942.9
2019-05-01T10:33:47.900Z,942.8
2019-05-01T10:36:56.568Z,942.8
2019-05-01T10:40:02.759Z,942.7
2019-05-01T10:43:09.037Z,942.8
2019-05-01T10:46:15.323Z,942.8
2019-05-01T10:49:24.330Z,942.7
2019-05-01T10:52:30.487Z,942.7
2019-05-01T10:55:36.708Z,942.8
2019-05-01T10:58:42.930Z,942.8
2019-05-01T11:01:51.736Z,942.8
2019-05-01T11:04:58.015Z,942.8
2019-05-01T11:08:04.281Z,942.8
2019-05-01T11:11:10.414Z,942.8
2019-05-01T11:14:16.610Z,942.8
2019-05-01T11:17:22.772Z,942.8
2019-05-01T11:20:29.061Z,942.8
2019-05-01T11:23:35.442Z,942.7
2019-05-01T11:26:41.681Z,942.8
2019-05-01T11:29:47.941Z,942.8
2019-05-01T11:32:54.077Z,942.7
2019-05-01T11:36:10.863Z,942.8
2019-05-01T11:39:16.961Z,942.7
2019-05-01T11:42:23.101Z,942.7
2019-05-01T11:45:29.227Z,942.8
2019-05-01T11:48:35.530Z,942.8
2019-05-01T11:51:41.851Z,942.8
2019-05-01T11:54:48.114Z,942.8
2019-05-01T11:57:54.497Z,942.8
2019-05-01T12:01:00.622Z,942.7
2019-05-01T12:04:06.815Z,942.6
2019-05-01T12:07:13.013Z,942.7
2019-05-01T12:10:19.296Z,942.7
2019-05-01T12:13:25.565Z,942.7
2019-05-01T12:16:31.782Z,942.7
2019-05-01T12:19:37.947Z,942.6
2019-05-01T12:22:44.165Z,942.4
2019-05-01T12:25:56.478Z,942.4
2019-05-01T12:29:02.804Z,942.5
2019-05-01T12:32:08.924Z,942.5
2019-05-01T12:35:15.126Z,942.5
2019-05-01T12:38:21.287Z,942.5
2019-05-01T12:41:27.422Z,942.4
2019-05-01T12:44:33.719Z,942.4
2019-05-01T12:47:39.979Z,942.4
2019-05-01T12:50:46.106Z,942.3
2019-05-01T12:53:52.368Z,942.3
2019-05-01T12:56:58.578Z,942.3
2019-05-01T13:00:10.298Z,942.4
2019-05-01T13:03:16.339Z,942.3
2019-05-01T13:06:22.615Z,942.3
2019-05-01T13:09:28.733Z,942.2
2019-05-01T13:12:37.622Z,942.3
2019-05-01T13:15:43.872Z,942.4
2019-05-01T13:18:52.901Z,942.4
2019-05-01T13:21:59.291Z,942.4
2019-05-01T13:25:05.450Z,942.4
2019-05-01T13:28:11.563Z,942.4
2019-05-01T13:31:17.757Z,942.4
2019-05-01T13:34:23.923Z,942.3
2019-05-01T13:37:30.093Z,942.1
2019-05-01T13:40:36.375Z,942.2
2019-05-01T13:43:42.483Z,942.1
2019-05-01T13:46:48.693Z,942.1
2019-05-01T13:49:54.962Z,942.2
2019-05-01T13:53:01.174Z,942.1
2019-05-01T13:56:07.377Z,942.1
2019-05-01T13:59:13.506Z,942.2
2019-05-01T14:02:19.836Z,942.2
2019-05-01T14:05:26.102Z,942.2
2019-05-01T14:08:32.217Z,942.2
2019-05-01T14:11:38.345Z,942.2
2019-05-01T14:14:44.596Z,942.3
2019-05-01T14:17:50.757Z,942.2
2019-05-01T14:20:56.864Z,942.2
2019-05-01T14:24:03.096Z,942.2
2019-05-01T14:27:09.368Z,942.2
2019-05-01T14:30:15.709Z,942.3
2019-05-01T14:33:21.875Z,942.4
2019-05-01T14:36:28.449Z,942.3
2019-05-01T14:39:34.665Z,942.3
2019-05-01T14:42:40.989Z,942.4
2019-05-01T14:45:47.246Z,942.4
2019-05-01T14:48:53.538Z,942.4
2019-05-01T14:51:59.731Z,942.4
2019-05-01T14:55:05.960Z,942.3
2019-05-01T14:58:12.069Z,942.3
2019-05-01T15:01:18.281Z,942.3
2019-05-01T15:04:24.671Z,942.2
2019-05-01T15:07:44.889Z,942.3
2019-05-01T15:10:51.004Z,942.4
2019-05-01T15:13:57.281Z,942.4
2019-05-01T15:17:03.445Z,942.3
2019-05-01T15:20:12.168Z,942.3
2019-05-01T15:23:18.430Z,942.4
2019-05-01T15:26:24.615Z,942.4
2019-05-01T15:29:30.968Z,942.4
2019-05-01T15:32:37.232Z,942.4
2019-05-01T15:35:43.354Z,942.4
2019-05-01T15:38:49.606Z,942.4
2019-05-01T15:41:55.834Z,942.3
2019-05-01T15:45:02.095Z,942.3
2019-05-01T15:48:08.282Z,942.3
2019-05-01T15:51:14.380Z,942.3
2019-05-01T15:54:20.590Z,942.2
2019-05-01T15:57:26.860Z,942.2
2019-05-01T16:00:33.121Z,942.3
2019-05-01T16:03:39.394Z,942.3
2019-05-01T16:06:45.525Z,942.3
2019-05-01T16:09:51.712Z,942.2
2019-05-01T16:12:57.904Z,942.3
2019-05-01T16:16:04.178Z,942.2
2019-05-01T16:19:10.515Z,942.2
2019-05-01T16:22:16.642Z,942.3
2019-05-01T16:25:22.849Z,942.3
2019-05-01T16:28:28.968Z,942.3
2019-05-01T16:31:37.901Z,942.3
2019-05-01T16:34:44.108Z,942.3
2019-05-01T16:37:50.230Z,942.4
2019-05-01T16:40:56.542Z,942.4
2019-05-01T16:44:02.660Z,942.5
2019-05-01T16:47:08.907Z,942.5
2019-05-01T16:50:15.145Z,942.6
2019-05-01T16:53:21.293Z,942.6
2019-05-01T16:56:27.563Z,942.6
2019-05-01T16:59:37.429Z,942.7
2019-05-01T17:02:43.584Z,942.7
2019-05-01T17:05:49.734Z,942.7
2019-05-01T17:08:56.023Z,942.9
2019-05-01T17:12:02.184Z,942.9
2019-05-01T17:15:08.366Z,943
2019-05-01T17:18:14.619Z,943
2019-05-01T17:21:20.828Z,943.1
2019-05-01T17:24:26.998Z,943.2
2019-05-01T17:27:33.312Z,943.2
2019-05-01T17:30:39.578Z,943.3
2019-05-01T17:33:45.973Z,943.3
2019-05-01T17:37:00.725Z,943.4
2019-05-01T17:40:06.988Z,943.4
2019-05-01T17:43:16.061Z,943.4
2019-05-01T17:46:22.277Z,943.5
2019-05-01T17:49:28.550Z,943.5
2019-05-01T17:52:34.817Z,943.5
2019-05-01T17:55:41.091Z,943.6
2019-05-01T17:58:47.224Z,943.6
2019-05-01T18:01:53.416Z,943.8
2019-05-01T18:04:59.682Z,943.7
2019-05-01T18:08:05.869Z,943.8
2019-05-01T18:11:16.458Z,943.8
2019-05-01T18:14:22.781Z,943.9
2019-05-01T18:17:28.914Z,943.8
2019-05-01T18:20:35.112Z,943.9
2019-05-01T18:23:49.438Z,943.9
2019-05-01T18:26:58.835Z,943.9
2019-05-01T18:30:04.943Z,943.9
2019-05-01T18:33:11.239Z,943.9
2019-05-01T18:36:25.763Z,944
2019-05-01T18:39:31.973Z,944.1
2019-05-01T18:42:38.103Z,944.1
2019-05-01T18:45:44.331Z,944
2019-05-01T18:48:50.676Z,944.1
2019-05-01T18:51:56.844Z,944
2019-05-01T18:55:02.949Z,944.1
2019-05-01T18:58:09.195Z,944.1
2019-05-01T19:01:15.288Z,944.1
2019-05-01T19:04:25.322Z,944.2
2019-05-01T19:07:31.450Z,944.1
2019-05-01T19:10:37.603Z,944.2
2019-05-01T19:13:43.741Z,944.3
2019-05-01T19:16:50.039Z,944.3
2019-05-01T19:19:56.312Z,944.3
2019-05-01T19:23:02.580Z,944.3
2019-05-01T19:26:08.845Z,944.4
2019-05-01T19:29:15.118Z,944.4
2019-05-01T19:32:21.372Z,944.4
2019-05-01T19:35:34.992Z,944.4
2019-05-01T19:38:41.110Z,944.4
2019-05-01T19:41:54.374Z,944.4
2019-05-01T19:45:00.847Z,944.4
2019-05-01T19:48:07.203Z,944.5
2019-05-01T19:51:13.327Z,944.5
2019-05-01T19:54:30.497Z,944.6
2019-05-01T19:57:36.712Z,944.5
2019-05-01T20:00:42.981Z,944.5
2019-05-01T20:03:49.306Z,944.5
2019-05-01T20:06:55.765Z,944.5
2019-05-01T20:10:01.986Z,944.5
2019-05-01T20:13:13.936Z,944.5
2019-05-01T20:16:20.147Z,944.5
2019-05-01T20:19:26.312Z,944.5
2019-05-01T20:22:32.428Z,944.6
2019-05-01T20:25:38.634Z,944.5
2019-05-01T20:28:46.914Z,944.6
2019-05-01T20:31:53.478Z,944.6
2019-05-01T20:35:00.617Z,944.6
2019-05-01T20:38:06.882Z,944.6
2019-05-01T20:41:18.728Z,944.5
2019-05-01T20:44:27.012Z,944.5
2019-05-01T20:47:47.593Z,944.5
2019-05-01T20:50:56.213Z,944.5
2019-05-01T20:54:02.342Z,944.4
2019-05-01T20:57:08.674Z,944.5
2019-05-01T21:00:26.599Z,944.4
2019-05-01T21:03:32.727Z,944.4
2019-05-01T21:06:45.660Z,944.3
2019-05-01T21:09:59.767Z,944.4
2019-05-01T21:13:05.920Z,944.3
2019-05-01T21:16:12.020Z,944.4
2019-05-01T21:19:18.220Z,944.3
2019-05-01T21:22:24.702Z,944.4
2019-05-01T21:25:30.822Z,944.4
2019-05-01T21:28:37.026Z,944.3
2019-05-01T21:31:45.140Z,944.4
2019-05-01T21:34:51.305Z,944.4
2019-05-01T21:37:59.248Z,944.4
2019-05-01T21:41:05.515Z,944.3
2019-05-01T21:44:13.754Z,944.3
2019-05-01T21:47:19.990Z,944.3
2019-05-01T21:50:27.887Z,944.3
2019-05-01T21:53:46.299Z,944.4
2019-05-01T21:56:52.683Z,944.4
2019-05-01T21:59:58.843Z,944.4
2019-05-01T22:03:05.019Z,944.5
2019-05-01T22:06:17.376Z,944.5
2019-05-01T22:09:23.480Z,944.5
2019-05-01T22:12:29.757Z,944.6
2019-05-01T22:15:35.881Z,944.6
2019-05-01T22:18:42.194Z,944.6
2019-05-01T22:21:48.318Z,944.6
2019-05-01T22:24:54.558Z,944.6
2019-05-01T22:28:00.778Z,944.6
2019-05-01T22:31:06.904Z,944.6
2019-05-01T22:34:13.119Z,944.6
2019-05-01T22:37:19.294Z,944.6
2019-05-01T22:40:25.565Z,944.6
2019-05-01T22:43:31.765Z,944.7
2019-05-01T22:46:41.421Z,944.7
2019-05-01T22:49:47.691Z,944.7
2019-05-01T22:52:53.882Z,944.6
2019-05-01T22:56:04.814Z,944.6
2019-05-01T22:59:10.873Z,944.6
2019-05-01T23:02:17.235Z,944.5
2019-05-01T23:05:29.451Z,944.7
2019-05-01T23:08:35.715Z,944.7
2019-05-01T23:11:41.944Z,944.7
2019-05-01T23:14:48.204Z,944.6
2019-05-01T23:17:54.373Z,944.6
2019-05-01T23:21:00.655Z,944.6
2019-05-01T23:24:06.932Z,944.6
2019-05-01T23:27:13.172Z,944.5
2019-05-01T23:30:19.395Z,944.5
2019-05-01T23:33:25.597Z,944.5
2019-05-01T23:36:34.636Z,944.5
2019-05-01T23:39:43.263Z,944.4
2019-05-01T23:42:54.895Z,944.4
2019-05-01T23:46:01.148Z,944.4
2019-05-01T23:49:07.414Z,944.4
2019-05-01T23:52:13.658Z,944.3
2019-05-01T23:55:19.771Z,944.3
2019-05-01T23:58:26.085Z,944.3
